sensor_id;sensor_type;location;lat;lon;timestamp;temperature;humidity
12632;DHT22;6381;45.748;12.106;2023-03-04T00:01:23;7.70;97.80
12632;DHT22;6381;45.748;12.106;2023-03-04T00:03:52;7.90;97.80
12632;DHT22;6381;45.748;12.106;2023-03-04T00:06:21;7.80;97.90
12632;DHT22;6381;45.748;12.106;2023-03-04T00:11:37;8.20;97.20
12632;DHT22;6381;45.748;12.106;2023-03-04T00:14:08;7.90;96.90
12632;DHT22;6381;45.748;12.106;2023-03-04T00:21:55;7.90;98.40
12632;DHT22;6381;45.748;12.106;2023-03-04T00:24:24;7.80;97.70
12632;DHT22;6381;45.748;12.106;2023-03-04T00:27:10;7.60;98.00
12632;DHT22;6381;45.748;12.106;2023-03-04T00:29:58;7.80;99.10
12632;DHT22;6381;45.748;12.106;2023-03-04T00:32:46;8.00;98.00
12632;DHT22;6381;45.748;12.106;2023-03-04T00:37:44;7.50;99.50
12632;DHT22;6381;45.748;12.106;2023-03-04T00:40:13;7.70;98.80
12632;DHT22;6381;45.748;12.106;2023-03-04T00:47:42;7.60;97.90
12632;DHT22;6381;45.748;12.106;2023-03-04T00:50:11;7.60;98.60
12632;DHT22;6381;45.748;12.106;2023-03-04T00:52:40;7.10;98.70
12632;DHT22;6381;45.748;12.106;2023-03-04T00:55:09;7.50;99.10
12632;DHT22;6381;45.748;12.106;2023-03-04T00:57:38;7.40;99.50
12632;DHT22;6381;45.748;12.106;2023-03-04T01:00:08;7.40;99.40
12632;DHT22;6381;45.748;12.106;2023-03-04T01:02:39;7.30;99.90
12632;DHT22;6381;45.748;12.106;2023-03-04T01:05:11;7.60;99.10
12632;DHT22;6381;45.748;12.106;2023-03-04T01:10:27;7.60;99.90
12632;DHT22;6381;45.748;12.106;2023-03-04T01:12:56;7.70;99.20
12632;DHT22;6381;45.748;12.106;2023-03-04T01:15:26;7.70;99.90
12632;DHT22;6381;45.748;12.106;2023-03-04T01:20:44;8.00;99.30
12632;DHT22;6381;45.748;12.106;2023-03-04T01:23:31;7.80;99.40
12632;DHT22;6381;45.748;12.106;2023-03-04T01:26:35;7.80;99.80
12632;DHT22;6381;45.748;12.106;2023-03-04T01:29:04;7.80;99.60
12632;DHT22;6381;45.748;12.106;2023-03-04T01:31:34;7.50;99.90
12632;DHT22;6381;45.748;12.106;2023-03-04T01:34:04;7.70;99.90
12632;DHT22;6381;45.748;12.106;2023-03-04T01:41:34;7.80;99.90
12632;DHT22;6381;45.748;12.106;2023-03-04T01:44:03;7.40;99.90
12632;DHT22;6381;45.748;12.106;2023-03-04T01:49:40;7.30;99.90
12632;DHT22;6381;45.748;12.106;2023-03-04T01:52:11;7.50;99.90
12632;DHT22;6381;45.748;12.106;2023-03-04T01:54:41;7.50;99.90
12632;DHT22;6381;45.748;12.106;2023-03-04T01:57:15;6.90;99.90
12632;DHT22;6381;45.748;12.106;2023-03-04T01:59:46;7.10;99.90
12632;DHT22;6381;45.748;12.106;2023-03-04T02:02:16;6.90;99.90
12632;DHT22;6381;45.748;12.106;2023-03-04T02:10:04;6.90;99.90
12632;DHT22;6381;45.748;12.106;2023-03-04T02:20:44;6.90;99.90
12632;DHT22;6381;45.748;12.106;2023-03-04T02:23:19;6.90;99.90
12632;DHT22;6381;45.748;12.106;2023-03-04T02:26:12;6.80;99.90
12632;DHT22;6381;45.748;12.106;2023-03-04T02:31:33;7.00;99.90
12632;DHT22;6381;45.748;12.106;2023-03-04T02:34:21;6.90;99.90
12632;DHT22;6381;45.748;12.106;2023-03-04T02:37:09;7.10;99.90
12632;DHT22;6381;45.748;12.106;2023-03-04T03:00:37;7.20;99.90
12632;DHT22;6381;45.748;12.106;2023-03-04T03:03:07;6.90;99.90
12632;DHT22;6381;45.748;12.106;2023-03-04T03:05:37;6.90;99.90
12632;DHT22;6381;45.748;12.106;2023-03-04T03:08:07;7.00;99.90
12632;DHT22;6381;45.748;12.106;2023-03-04T03:10:40;7.00;99.90
12632;DHT22;6381;45.748;12.106;2023-03-04T03:13:29;7.10;99.90
12632;DHT22;6381;45.748;12.106;2023-03-04T03:15:58;7.00;99.90
12632;DHT22;6381;45.748;12.106;2023-03-04T03:18:27;7.40;99.90
12632;DHT22;6381;45.748;12.106;2023-03-04T03:21:15;7.50;99.90
12632;DHT22;6381;45.748;12.106;2023-03-04T03:23:44;7.50;99.90
12632;DHT22;6381;45.748;12.106;2023-03-04T03:26:13;7.60;99.90
12632;DHT22;6381;45.748;12.106;2023-03-04T03:39:37;7.10;99.90
12632;DHT22;6381;45.748;12.106;2023-03-04T03:42:06;7.10;99.90
12632;DHT22;6381;45.748;12.106;2023-03-04T03:57:04;7.40;99.90
12632;DHT22;6381;45.748;12.106;2023-03-04T03:59:33;7.20;99.90
12632;DHT22;6381;45.748;12.106;2023-03-04T06:51:44;7.80;99.90
12632;DHT22;6381;45.748;12.106;2023-03-04T06:54:15;7.80;99.90
12632;DHT22;6381;45.748;12.106;2023-03-04T06:56:47;7.90;99.90
12632;DHT22;6381;45.748;12.106;2023-03-04T06:59:35;7.80;99.90
12632;DHT22;6381;45.748;12.106;2023-03-04T07:02:04;8.00;99.90
12632;DHT22;6381;45.748;12.106;2023-03-04T07:04:51;8.20;99.90
12632;DHT22;6381;45.748;12.106;2023-03-04T07:09:51;8.30;99.90
12632;DHT22;6381;45.748;12.106;2023-03-04T07:12:20;8.30;99.90
12632;DHT22;6381;45.748;12.106;2023-03-04T07:22:35;8.80;99.90
12632;DHT22;6381;45.748;12.106;2023-03-04T07:25:07;9.00;99.50
12632;DHT22;6381;45.748;12.106;2023-03-04T07:27:54;8.80;99.20
12632;DHT22;6381;45.748;12.106;2023-03-04T07:30:23;9.20;99.30
12632;DHT22;6381;45.748;12.106;2023-03-04T07:32:55;9.30;96.60
12632;DHT22;6381;45.748;12.106;2023-03-04T07:35:24;9.20;96.60
12632;DHT22;6381;45.748;12.106;2023-03-04T07:37:54;9.60;99.00
12632;DHT22;6381;45.748;12.106;2023-03-04T07:40:24;9.70;96.00
12632;DHT22;6381;45.748;12.106;2023-03-04T07:42:54;9.90;95.90
12632;DHT22;6381;45.748;12.106;2023-03-04T07:45:25;10.10;98.30
12632;DHT22;6381;45.748;12.106;2023-03-04T07:47:56;10.20;95.10
12632;DHT22;6381;45.748;12.106;2023-03-04T07:50:43;10.30;95.10
12632;DHT22;6381;45.748;12.106;2023-03-04T07:53:13;10.40;94.70
12632;DHT22;6381;45.748;12.106;2023-03-04T07:55:46;10.60;95.40
12632;DHT22;6381;45.748;12.106;2023-03-04T08:05:44;10.70;97.20
12632;DHT22;6381;45.748;12.106;2023-03-04T08:08:32;10.80;95.10
12632;DHT22;6381;45.748;12.106;2023-03-04T08:11:40;10.90;94.40
12632;DHT22;6381;45.748;12.106;2023-03-04T08:14:10;10.90;94.10
12632;DHT22;6381;45.748;12.106;2023-03-04T08:16:40;11.10;94.10
12632;DHT22;6381;45.748;12.106;2023-03-04T08:19:10;11.10;94.10
12632;DHT22;6381;45.748;12.106;2023-03-04T08:21:40;11.10;92.80
12632;DHT22;6381;45.748;12.106;2023-03-04T08:24:10;11.10;92.60
12632;DHT22;6381;45.748;12.106;2023-03-04T08:26:43;11.20;93.10
12632;DHT22;6381;45.748;12.106;2023-03-04T08:29:14;11.40;94.20
12632;DHT22;6381;45.748;12.106;2023-03-04T08:31:44;11.50;94.30
12632;DHT22;6381;45.748;12.106;2023-03-04T08:36:44;11.50;94.80
12632;DHT22;6381;45.748;12.106;2023-03-04T08:39:32;11.30;93.60
12632;DHT22;6381;45.748;12.106;2023-03-04T08:42:04;11.50;94.40
12632;DHT22;6381;45.748;12.106;2023-03-04T08:47:02;11.50;90.80
12632;DHT22;6381;45.748;12.106;2023-03-04T08:49:50;11.60;90.80
12632;DHT22;6381;45.748;12.106;2023-03-04T08:57:57;11.90;87.10
12632;DHT22;6381;45.748;12.106;2023-03-04T09:00:26;12.10;85.90
12632;DHT22;6381;45.748;12.106;2023-03-04T09:02:55;12.20;85.20
12632;DHT22;6381;45.748;12.106;2023-03-04T09:05:44;12.30;84.80
12632;DHT22;6381;45.748;12.106;2023-03-04T09:08:13;12.30;86.30
12632;DHT22;6381;45.748;12.106;2023-03-04T09:10:45;12.20;83.70
12632;DHT22;6381;45.748;12.106;2023-03-04T09:13:16;12.40;84.70
12632;DHT22;6381;45.748;12.106;2023-03-04T09:15:46;12.70;85.60
12632;DHT22;6381;45.748;12.106;2023-03-04T09:21:21;12.80;87.20
12632;DHT22;6381;45.748;12.106;2023-03-04T09:24:07;13.00;86.90
12632;DHT22;6381;45.748;12.106;2023-03-04T09:26:36;12.80;81.80
12632;DHT22;6381;45.748;12.106;2023-03-04T09:29:24;12.30;82.20
12632;DHT22;6381;45.748;12.106;2023-03-04T09:38:41;12.30;78.20
12632;DHT22;6381;45.748;12.106;2023-03-04T09:41:15;12.50;76.50
12632;DHT22;6381;45.748;12.106;2023-03-04T09:43:46;12.40;72.70
12632;DHT22;6381;45.748;12.106;2023-03-04T09:46:21;12.50;71.20
12632;DHT22;6381;45.748;12.106;2023-03-04T09:48:54;12.60;70.90
12632;DHT22;6381;45.748;12.106;2023-03-04T09:51:54;12.80;70.60
12632;DHT22;6381;45.748;12.106;2023-03-04T09:54:32;12.50;72.80
12632;DHT22;6381;45.748;12.106;2023-03-04T09:59:51;13.00;71.40
12632;DHT22;6381;45.748;12.106;2023-03-04T10:05:01;13.20;68.90
12632;DHT22;6381;45.748;12.106;2023-03-04T10:13:34;12.90;71.10
12632;DHT22;6381;45.748;12.106;2023-03-04T10:16:10;13.50;68.80
12632;DHT22;6381;45.748;12.106;2023-03-04T10:18:46;13.80;69.90
12632;DHT22;6381;45.748;12.106;2023-03-04T10:21:20;13.70;69.30
12632;DHT22;6381;45.748;12.106;2023-03-04T10:26:21;13.60;66.30
12632;DHT22;6381;45.748;12.106;2023-03-04T10:28:51;13.80;68.20
12632;DHT22;6381;45.748;12.106;2023-03-04T10:31:29;14.00;67.40
12632;DHT22;6381;45.748;12.106;2023-03-04T10:34:01;13.80;66.90
12632;DHT22;6381;45.748;12.106;2023-03-04T10:36:42;14.10;67.90
12632;DHT22;6381;45.748;12.106;2023-03-04T10:39:17;14.10;67.10
12632;DHT22;6381;45.748;12.106;2023-03-04T10:41:55;14.00;66.50
12632;DHT22;6381;45.748;12.106;2023-03-04T10:44:25;14.00;66.70
12632;DHT22;6381;45.748;12.106;2023-03-04T10:46:56;13.80;66.20
12632;DHT22;6381;45.748;12.106;2023-03-04T10:50:04;14.30;67.70
12632;DHT22;6381;45.748;12.106;2023-03-04T10:55:27;14.50;64.30
12632;DHT22;6381;45.748;12.106;2023-03-04T10:58:01;14.20;62.40
12632;DHT22;6381;45.748;12.106;2023-03-04T11:03:27;14.60;61.80
12632;DHT22;6381;45.748;12.106;2023-03-04T11:06:09;14.80;61.70
12632;DHT22;6381;45.748;12.106;2023-03-04T11:08:40;15.30;60.00
12632;DHT22;6381;45.748;12.106;2023-03-04T11:11:27;15.10;61.10
12632;DHT22;6381;45.748;12.106;2023-03-04T11:14:03;14.40;59.90
12632;DHT22;6381;45.748;12.106;2023-03-04T11:16:36;14.50;60.70
12632;DHT22;6381;45.748;12.106;2023-03-04T11:19:28;14.90;60.20
12632;DHT22;6381;45.748;12.106;2023-03-04T11:22:21;15.00;59.10
12632;DHT22;6381;45.748;12.106;2023-03-04T11:28:40;14.60;57.60
12632;DHT22;6381;45.748;12.106;2023-03-04T11:31:14;15.20;57.70
12632;DHT22;6381;45.748;12.106;2023-03-04T11:33:48;15.50;56.80
12632;DHT22;6381;45.748;12.106;2023-03-04T11:36:32;16.10;55.70
12632;DHT22;6381;45.748;12.106;2023-03-04T11:39:26;15.40;56.00
12632;DHT22;6381;45.748;12.106;2023-03-04T11:42:01;15.50;55.90
12632;DHT22;6381;45.748;12.106;2023-03-04T11:44:31;15.70;55.40
12632;DHT22;6381;45.748;12.106;2023-03-04T11:47:27;16.10;54.40
12632;DHT22;6381;45.748;12.106;2023-03-04T11:56:26;16.40;52.90
12632;DHT22;6381;45.748;12.106;2023-03-04T12:02:14;16.50;52.30
12632;DHT22;6381;45.748;12.106;2023-03-04T12:05:27;16.30;51.20
12632;DHT22;6381;45.748;12.106;2023-03-04T12:08:20;16.40;51.10
12632;DHT22;6381;45.748;12.106;2023-03-04T12:11:15;16.50;51.20
12632;DHT22;6381;45.748;12.106;2023-03-04T12:14:07;16.90;49.90
12632;DHT22;6381;45.748;12.106;2023-03-04T12:16:59;17.40;48.60
12632;DHT22;6381;45.748;12.106;2023-03-04T12:25:43;17.10;48.70
12632;DHT22;6381;45.748;12.106;2023-03-04T12:28:46;18.30;48.40
12632;DHT22;6381;45.748;12.106;2023-03-04T12:31:36;18.30;46.50
12632;DHT22;6381;45.748;12.106;2023-03-04T12:34:30;16.80;48.40
12632;DHT22;6381;45.748;12.106;2023-03-04T12:37:15;15.70;46.80
12632;DHT22;6381;45.748;12.106;2023-03-04T12:39:55;17.40;47.20
12632;DHT22;6381;45.748;12.106;2023-03-04T12:43:18;17.90;46.40
12632;DHT22;6381;45.748;12.106;2023-03-04T12:45:57;17.50;45.40
12632;DHT22;6381;45.748;12.106;2023-03-04T12:48:30;17.90;46.10
12632;DHT22;6381;45.748;12.106;2023-03-04T12:51:08;18.50;44.60
12632;DHT22;6381;45.748;12.106;2023-03-04T12:54:19;17.50;45.80
12632;DHT22;6381;45.748;12.106;2023-03-04T12:56:55;17.90;45.50
12632;DHT22;6381;45.748;12.106;2023-03-04T12:59:35;18.00;44.80
12632;DHT22;6381;45.748;12.106;2023-03-04T13:02:36;17.80;45.80
12632;DHT22;6381;45.748;12.106;2023-03-04T13:05:23;17.70;46.00
12632;DHT22;6381;45.748;12.106;2023-03-04T13:08:18;18.90;45.30
12632;DHT22;6381;45.748;12.106;2023-03-04T13:10:51;19.00;43.90
12632;DHT22;6381;45.748;12.106;2023-03-04T13:13:37;18.30;44.40
12632;DHT22;6381;45.748;12.106;2023-03-04T13:16:27;17.60;45.50
12632;DHT22;6381;45.748;12.106;2023-03-04T13:19:00;17.70;44.70
12632;DHT22;6381;45.748;12.106;2023-03-04T13:21:47;17.60;44.80
12632;DHT22;6381;45.748;12.106;2023-03-04T13:24:44;17.90;44.20
12632;DHT22;6381;45.748;12.106;2023-03-04T13:27:45;17.90;43.90
12632;DHT22;6381;45.748;12.106;2023-03-04T13:33:49;18.30;43.20
12632;DHT22;6381;45.748;12.106;2023-03-04T13:39:34;18.70;43.70
12632;DHT22;6381;45.748;12.106;2023-03-04T13:42:40;18.70;42.50
12632;DHT22;6381;45.748;12.106;2023-03-04T13:45:33;18.70;43.00
12632;DHT22;6381;45.748;12.106;2023-03-04T13:48:05;18.50;43.50
12632;DHT22;6381;45.748;12.106;2023-03-04T13:53:43;18.80;41.80
12632;DHT22;6381;45.748;12.106;2023-03-04T13:56:29;18.10;43.20
12632;DHT22;6381;45.748;12.106;2023-03-04T13:59:23;18.50;43.50
12632;DHT22;6381;45.748;12.106;2023-03-04T14:04:57;19.00;42.10
12632;DHT22;6381;45.748;12.106;2023-03-04T14:07:28;18.50;42.90
12632;DHT22;6381;45.748;12.106;2023-03-04T14:10:00;18.10;43.20
12632;DHT22;6381;45.748;12.106;2023-03-04T14:12:34;18.40;43.20
12632;DHT22;6381;45.748;12.106;2023-03-04T14:15:15;18.20;43.00
12632;DHT22;6381;45.748;12.106;2023-03-04T14:17:49;18.30;43.50
12632;DHT22;6381;45.748;12.106;2023-03-04T14:20:25;18.30;42.70
12632;DHT22;6381;45.748;12.106;2023-03-04T14:28:32;21.20;42.90
12632;DHT22;6381;45.748;12.106;2023-03-04T14:31:01;19.20;42.00
12632;DHT22;6381;45.748;12.106;2023-03-04T14:33:30;18.80;41.40
12632;DHT22;6381;45.748;12.106;2023-03-04T14:36:00;18.90;42.10
12632;DHT22;6381;45.748;12.106;2023-03-04T14:38:32;18.60;42.60
12632;DHT22;6381;45.748;12.106;2023-03-04T14:41:06;19.10;42.20
12632;DHT22;6381;45.748;12.106;2023-03-04T14:43:40;19.20;41.30
12632;DHT22;6381;45.748;12.106;2023-03-04T14:46:13;19.10;41.40
12632;DHT22;6381;45.748;12.106;2023-03-04T14:48:46;18.70;41.90
12632;DHT22;6381;45.748;12.106;2023-03-04T14:51:35;18.80;42.20
12632;DHT22;6381;45.748;12.106;2023-03-04T14:56:51;19.00;42.00
12632;DHT22;6381;45.748;12.106;2023-03-04T14:59:32;18.40;41.90
12632;DHT22;6381;45.748;12.106;2023-03-04T15:02:23;18.70;42.30
12632;DHT22;6381;45.748;12.106;2023-03-04T15:05:06;18.40;43.20
12632;DHT22;6381;45.748;12.106;2023-03-04T15:07:49;18.50;43.20
12632;DHT22;6381;45.748;12.106;2023-03-04T15:10:22;18.10;44.20
12632;DHT22;6381;45.748;12.106;2023-03-04T15:12:53;18.30;43.70
12632;DHT22;6381;45.748;12.106;2023-03-04T15:16:01;18.80;43.60
12632;DHT22;6381;45.748;12.106;2023-03-04T15:18:32;18.60;43.10
12632;DHT22;6381;45.748;12.106;2023-03-04T15:21:32;18.00;44.10
12632;DHT22;6381;45.748;12.106;2023-03-04T15:24:02;18.00;43.80
12632;DHT22;6381;45.748;12.106;2023-03-04T15:26:33;18.20;43.50
12632;DHT22;6381;45.748;12.106;2023-03-04T15:29:12;17.90;44.70
12632;DHT22;6381;45.748;12.106;2023-03-04T15:31:43;18.00;43.80
12632;DHT22;6381;45.748;12.106;2023-03-04T15:34:16;17.70;44.70
12632;DHT22;6381;45.748;12.106;2023-03-04T15:36:48;17.90;45.10
12632;DHT22;6381;45.748;12.106;2023-03-04T15:39:18;18.00;44.60
12632;DHT22;6381;45.748;12.106;2023-03-04T15:44:37;18.30;44.70
12632;DHT22;6381;45.748;12.106;2023-03-04T15:47:09;17.80;45.30
12632;DHT22;6381;45.748;12.106;2023-03-04T15:49:43;17.80;46.10
12632;DHT22;6381;45.748;12.106;2023-03-04T15:52:16;17.50;46.40
12632;DHT22;6381;45.748;12.106;2023-03-04T15:54:47;17.50;46.10
12632;DHT22;6381;45.748;12.106;2023-03-04T15:57:35;17.30;46.10
12632;DHT22;6381;45.748;12.106;2023-03-04T16:00:06;17.30;46.00
12632;DHT22;6381;45.748;12.106;2023-03-04T16:02:38;17.10;46.40
12632;DHT22;6381;45.748;12.106;2023-03-04T16:05:25;16.30;47.60
12632;DHT22;6381;45.748;12.106;2023-03-04T16:07:57;15.90;48.80
12632;DHT22;6381;45.748;12.106;2023-03-04T16:10:28;15.80;49.30
12632;DHT22;6381;45.748;12.106;2023-03-04T16:12:57;15.80;50.00
12632;DHT22;6381;45.748;12.106;2023-03-04T16:15:44;15.80;50.40
12632;DHT22;6381;45.748;12.106;2023-03-04T16:18:16;16.50;50.20
12632;DHT22;6381;45.748;12.106;2023-03-04T16:20:47;16.60;49.80
12632;DHT22;6381;45.748;12.106;2023-03-04T16:23:19;16.80;51.60
12632;DHT22;6381;45.748;12.106;2023-03-04T17:04:35;14.20;64.60
12632;DHT22;6381;45.748;12.106;2023-03-04T17:07:04;14.00;65.60
12632;DHT22;6381;45.748;12.106;2023-03-04T17:12:22;13.80;67.30
12632;DHT22;6381;45.748;12.106;2023-03-04T17:17:40;13.70;65.60
12632;DHT22;6381;45.748;12.106;2023-03-04T17:51:42;13.10;70.50
12632;DHT22;6381;45.748;12.106;2023-03-04T18:01:42;13.10;69.60
12632;DHT22;6381;45.748;12.106;2023-03-04T18:04:13;13.10;70.60
12632;DHT22;6381;45.748;12.106;2023-03-04T18:06:43;13.00;70.60
12632;DHT22;6381;45.748;12.106;2023-03-04T18:09:12;12.90;70.50
12632;DHT22;6381;45.748;12.106;2023-03-04T18:19:44;13.00;73.30
12632;DHT22;6381;45.748;12.106;2023-03-04T18:22:14;12.60;72.30
12632;DHT22;6381;45.748;12.106;2023-03-04T18:32:30;12.60;71.60
12632;DHT22;6381;45.748;12.106;2023-03-04T18:35:17;12.50;72.60
12632;DHT22;6381;45.748;12.106;2023-03-04T18:37:48;12.50;72.90
12632;DHT22;6381;45.748;12.106;2023-03-04T18:40:37;12.40;73.50
12632;DHT22;6381;45.748;12.106;2023-03-04T18:43:24;12.10;73.80
12632;DHT22;6381;45.748;12.106;2023-03-04T18:46:01;12.20;75.00
12632;DHT22;6381;45.748;12.106;2023-03-04T18:48:34;12.10;75.60
12632;DHT22;6381;45.748;12.106;2023-03-04T18:51:04;12.20;76.10
12632;DHT22;6381;45.748;12.106;2023-03-04T18:53:35;12.00;76.30
12632;DHT22;6381;45.748;12.106;2023-03-04T18:56:08;11.90;77.00
12632;DHT22;6381;45.748;12.106;2023-03-04T18:58:39;11.90;77.50
12632;DHT22;6381;45.748;12.106;2023-03-04T19:01:10;11.80;78.00
12632;DHT22;6381;45.748;12.106;2023-03-04T19:03:40;11.80;78.50
12632;DHT22;6381;45.748;12.106;2023-03-04T19:06:10;11.50;79.70
12632;DHT22;6381;45.748;12.106;2023-03-04T19:08:57;11.70;80.50
12632;DHT22;6381;45.748;12.106;2023-03-04T19:11:26;11.90;78.60
12632;DHT22;6381;45.748;12.106;2023-03-04T19:13:58;11.80;78.50
12632;DHT22;6381;45.748;12.106;2023-03-04T19:16:26;11.70;78.80
12632;DHT22;6381;45.748;12.106;2023-03-04T19:18:56;11.50;79.70
12632;DHT22;6381;45.748;12.106;2023-03-04T19:21:25;11.60;80.30
12632;DHT22;6381;45.748;12.106;2023-03-04T19:27:01;11.60;80.50
12632;DHT22;6381;45.748;12.106;2023-03-04T19:29:31;11.30;79.80
12632;DHT22;6381;45.748;12.106;2023-03-04T19:32:01;11.50;80.40
12632;DHT22;6381;45.748;12.106;2023-03-04T19:34:30;11.60;80.40
12632;DHT22;6381;45.748;12.106;2023-03-04T19:36:59;11.90;80.70
12632;DHT22;6381;45.748;12.106;2023-03-04T19:39:28;11.50;81.40
12632;DHT22;6381;45.748;12.106;2023-03-04T19:41:57;11.50;81.70
12632;DHT22;6381;45.748;12.106;2023-03-04T19:44:30;11.50;82.40
12632;DHT22;6381;45.748;12.106;2023-03-04T19:46:59;11.60;82.60
12632;DHT22;6381;45.748;12.106;2023-03-04T19:49:30;11.70;82.90
12632;DHT22;6381;45.748;12.106;2023-03-04T19:52:00;11.60;83.00
12632;DHT22;6381;45.748;12.106;2023-03-04T19:54:46;11.50;84.00
12632;DHT22;6381;45.748;12.106;2023-03-04T19:57:15;11.40;84.70
12632;DHT22;6381;45.748;12.106;2023-03-04T19:59:46;11.10;86.40
12632;DHT22;6381;45.748;12.106;2023-03-04T20:02:32;10.90;89.20
12632;DHT22;6381;45.748;12.106;2023-03-04T20:05:02;10.80;89.90
12632;DHT22;6381;45.748;12.106;2023-03-04T20:07:31;10.80;90.50
12632;DHT22;6381;45.748;12.106;2023-03-04T20:10:17;10.80;90.70
12632;DHT22;6381;45.748;12.106;2023-03-04T20:12:47;11.00;91.60
12632;DHT22;6381;45.748;12.106;2023-03-04T20:15:17;11.20;90.50
12632;DHT22;6381;45.748;12.106;2023-03-04T20:17:47;11.10;90.50
12632;DHT22;6381;45.748;12.106;2023-03-04T20:20:16;11.00;90.90
12632;DHT22;6381;45.748;12.106;2023-03-04T20:22:45;11.10;91.10
12632;DHT22;6381;45.748;12.106;2023-03-04T20:25:14;10.90;91.20
12632;DHT22;6381;45.748;12.106;2023-03-04T20:27:43;10.80;91.70
12632;DHT22;6381;45.748;12.106;2023-03-04T20:30:13;10.80;91.90
12632;DHT22;6381;45.748;12.106;2023-03-04T20:32:44;10.70;92.20
12632;DHT22;6381;45.748;12.106;2023-03-04T20:35:13;10.50;92.20
12632;DHT22;6381;45.748;12.106;2023-03-04T20:37:44;10.80;92.00
12632;DHT22;6381;45.748;12.106;2023-03-04T20:40:13;10.60;91.70
12632;DHT22;6381;45.748;12.106;2023-03-04T20:42:42;10.80;91.80
12632;DHT22;6381;45.748;12.106;2023-03-04T20:45:30;10.80;91.80
12632;DHT22;6381;45.748;12.106;2023-03-04T20:48:00;10.70;91.60
12632;DHT22;6381;45.748;12.106;2023-03-04T20:51:05;10.70;91.80
12632;DHT22;6381;45.748;12.106;2023-03-04T20:53:35;10.80;91.70
12632;DHT22;6381;45.748;12.106;2023-03-04T20:58:53;10.70;92.30
12632;DHT22;6381;45.748;12.106;2023-03-04T21:01:23;10.60;92.80
12632;DHT22;6381;45.748;12.106;2023-03-04T21:03:54;10.60;92.90
12632;DHT22;6381;45.748;12.106;2023-03-04T21:09:13;10.50;93.10
12632;DHT22;6381;45.748;12.106;2023-03-04T21:11:43;10.50;93.50
12632;DHT22;6381;45.748;12.106;2023-03-04T21:14:14;10.40;93.60
12632;DHT22;6381;45.748;12.106;2023-03-04T21:19:53;10.30;93.70
12632;DHT22;6381;45.748;12.106;2023-03-04T21:22:43;10.20;94.10
12632;DHT22;6381;45.748;12.106;2023-03-04T21:25:29;10.30;94.20
12632;DHT22;6381;45.748;12.106;2023-03-04T21:28:15;10.30;94.30
12632;DHT22;6381;45.748;12.106;2023-03-04T21:30:46;10.40;94.40
12632;DHT22;6381;45.748;12.106;2023-03-04T21:33:33;10.20;94.30
12632;DHT22;6381;45.748;12.106;2023-03-04T21:36:07;9.80;95.00
12632;DHT22;6381;45.748;12.106;2023-03-04T21:38:36;9.80;95.90
12632;DHT22;6381;45.748;12.106;2023-03-04T21:41:07;9.80;96.00
12632;DHT22;6381;45.748;12.106;2023-03-04T21:43:38;9.90;96.00
12632;DHT22;6381;45.748;12.106;2023-03-04T21:46:08;9.80;95.90
12632;DHT22;6381;45.748;12.106;2023-03-04T21:48:37;10.00;95.70
12632;DHT22;6381;45.748;12.106;2023-03-04T21:51:27;10.30;95.40
12632;DHT22;6381;45.748;12.106;2023-03-04T21:54:16;10.20;95.40
12632;DHT22;6381;45.748;12.106;2023-03-04T23:52:44;8.90;96.90
